EST,Max TemperatureF,Mean TemperatureF,Min TemperatureF,Max Dew PointF,MeanDew PointF,Min DewpointF,Max Humidity, Mean Humidity, Min Humidity, Max Sea Level PressureIn, Mean Sea Level PressureIn, Min Sea Level PressureIn, Max VisibilityMiles, Mean VisibilityMiles, Min VisibilityMiles, Max Wind SpeedMPH, Mean Wind SpeedMPH, Max Gust SpeedMPH,PrecipitationIn, CloudCover, Events, WindDirDegrees
2013-2-1,17,12,6,10,6,1,88,77,66,30.29,30.00,29.70,10,4,0,26,16,35,T,7,Fog-Snow,259
2013-2-2,18,12,5,16,9,1,92,83,73,30.28,30.04,29.88,10,4,0,17,7,22,0.04,7,Fog-Snow,220
2013-2-3,21,18,14,18,14,9,100,87,73,29.95,29.80,29.70,7,3,0,22,9,29,T,8,Fog-Snow,254
2013-2-4,20,16,12,18,12,6,91,76,61,30.03,29.90,29.80,10,4,1,22,7,29,T,8,Snow,250
2013-2-5,26,23,20,23,20,16,91,84,77,29.93,29.84,29.76,8,4,0,15,4,20,0.01,8,Fog-Snow,252
2013-2-6,26,22,17,22,16,8,96,73,50,30.34,30.11,29.85,10,6,0,20,8,26,T,5,Fog-Snow,274
2013-2-7,33,23,12,21,15,7,84,70,56,30.35,30.24,30.05,10,10,7,20,9,25,0.00,3,,118
2013-2-8,33,25,16,32,25,11,92,83,74,30.07,29.85,29.73,10,4,0,25,14,31,0.13,8,Fog-Snow,226
2013-2-9,27,21,14,13,10,9,88,72,55,30.40,30.26,30.08,10,6,1,22,9,30,T,5,Snow,299
2013-2-10,38,23,8,19,13,5,92,65,38,30.38,30.25,30.03,10,10,10,17,10,23,0.00,3,,118
2013-2-11,53,42,31,41,31,18,100,75,50,29.99,29.81,29.62,10,6,2,31,15,41,0.07,8,Rain,189
2013-2-12,31,27,22,22,20,19,88,76,63,30.02,29.94,29.84,10,9,4,31,12,43,T,6,Snow,262
2013-2-13,39,28,17,30,23,16,92,72,52,29.93,29.77,29.64,10,5,1,10,4,14,T,3,Snow,252
2013-2-14,35,29,23,31,27,20,92,84,75,29.95,29.87,29.82,10,4,1,15,8,18,T,8,Snow,213
2013-2-15,35,30,24,31,24,18,89,75,61,30.02,29.95,29.83,10,9,2,21,11,26,T,8,Snow,271
2013-2-16,27,21,14,19,12,3,74,58,42,30.03,29.94,29.85,10,8,0,13,6,16,T,6,Fog-Snow,326
2013-2-17,20,15,10,10,7,3,88,71,54,30.21,29.96,29.81,10,7,0,23,11,36,T,6,Snow,298
2013-2-18,35,20,5,17,8,2,88,60,32,30.30,30.18,29.96,10,10,10,14,7,17,0.00,1,,201
2013-2-19,39,29,18,36,26,10,96,72,47,29.92,29.71,29.58,10,5,1,36,15,51,0.27,8,Rain-Snow,220
2013-2-20,19,16,13,12,9,5,80,68,56,30.15,29.95,29.80,10,4,0,26,17,37,T,8,Snow,266
2013-2-21,24,19,14,12,10,9,88,74,59,30.35,30.16,30.03,10,5,1,20,9,25,T,6,Snow,289
2013-2-22,27,21,14,25,20,10,100,84,68,30.33,30.13,30.01,10,6,1,22,13,30,T,6,Rain,119
2013-2-23,37,32,26,32,28,24,100,91,82,30.05,29.89,29.80,7,4,2,15,5,21,0.00,6,,141
2013-2-24,30,28,25,27,21,16,100,82,63,30.12,29.92,29.79,10,5,1,18,9,26,T,8,Snow,285
2013-2-25,39,31,23,21,19,18,88,68,48,30.21,30.15,30.06,10,10,10,8,4,12,0.00,3,,330
2013-2-26,35,31,26,31,27,19,92,74,56,30.13,29.82,29.65,10,5,0,25,14,40,0.62,6,Fog-Rain-Snow,109
2013-2-27,36,34,31,34,31,30,100,95,89,29.65,29.58,29.53,10,4,0,23,9,29,0.15,8,Fog-Snow,195
2013-2-28,31,30,29,29,28,26,100,93,85,29.74,29.60,29.55,10,4,0,16,11,24,0.02,8,Fog-Snow,254